Linda Moran — WDE4187 — position and weather

sailwx.info

Track history (hours):
 
Tides and Currents Weather Stations Pressure Air Temp Water Temp Dewpoint Dewpoint Depression Visibility Wind Speed Wind Dir Waves Ship Positions

Linda Moran

Owner: MORAN TOWING CORP., NEW CANAAN, CT. More information available from US FCC via Universal Licensing System and Coast Guard Vessel Documentation Center.

Last reported at 2015-Aug-29 20:33 UTC. Time now 2015-Aug-29 20:56 UTC.
Position N 38°46' W 074°57'.

Length 156 m; draft 8.2 m.

Type: Towing. MMSI: 367349860.

Date/timePositionNaut miles runAvg speedWind from/ knotsBaromVisibWave heightAir tempDewpointWater temp
2015-Aug-29 20:33N 38°46' W 074°57'9 8.6
2015-Aug-29 19:33N 38°53' W 075°04'1010.4
2015-Aug-29 18:33N 39°02' W 075°10'1111.2
2015-Aug-29 17:33N 39°12' W 075°17'1110.6
2015-Aug-29 16:33N 39°20' W 075°26'9 9.1
2015-Aug-29 15:33N 39°27' W 075°33'8 7.5
2015-Aug-29 14:33N 39°35' W 075°33'6 6.3
2015-Aug-29 13:33N 39°41' W 075°31'8 7.6
2015-Aug-29 12:33N 39°47' W 075°27'2 2.3
2015-Aug-29 11:33N 39°48' W 075°24'0 0.0
2015-Aug-29 10:33N 39°48' W 075°24'0 0.0
2015-Aug-29 09:33N 39°48' W 075°24'0 0.0
2015-Aug-29 08:32N 39°48' W 075°24'0 0.0
2015-Aug-29 07:32N 39°48' W 075°24'0 0.0
2015-Aug-29 06:32N 39°49' W 075°24'0 0.2
2015-Aug-29 05:32N 39°49' W 075°24'0 0.0
2015-Aug-29 04:32N 39°49' W 075°24'0 0.0
2015-Aug-29 03:29N 39°49' W 075°24'0 0.0
2015-Aug-29 02:29N 39°49' W 075°24'0 0.0
2015-Aug-29 01:32N 39°49' W 075°24'0 0.0
2015-Aug-29 00:32N 39°49' W 075°24'0 0.2
2015-Aug-28 23:32N 39°48' W 075°24'0 0.0
2015-Aug-28 22:32N 39°48' W 075°24'0 0.0
2015-Aug-28 21:32N 39°48' W 075°24'0 0.0
2015-Aug-28 20:32N 39°48' W 075°24'0 0.0
2015-Aug-28 19:32N 39°48' W 075°24'0 0.0
2015-Aug-28 18:32N 39°48' W 075°24'0 0.2
2015-Aug-28 17:32N 39°49' W 075°24'0 0.1
2015-Aug-28 16:32N 39°49' W 075°24'0 0.0
2015-Aug-28 15:32N 39°49' W 075°24'0 0.0
2015-Aug-28 14:32N 39°49' W 075°24'0 0.0
2015-Aug-28 13:32N 39°49' W 075°24'0 0.0
2015-Aug-28 12:32N 39°49' W 075°24'0 0.2
2015-Aug-28 11:32N 39°48' W 075°24'0 0.0
2015-Aug-28 10:32N 39°48' W 075°24'0 0.0
2015-Aug-28 09:32N 39°48' W 075°24'0 0.0
2015-Aug-28 08:32N 39°48' W 075°24'0 0.0
2015-Aug-28 07:32N 39°48' W 075°24'0 0.0
2015-Aug-28 06:32N 39°48' W 075°24'0 0.0
2015-Aug-28 05:32N 39°48' W 075°24'0 0.1
2015-Aug-28 04:32N 39°49' W 075°24'0 0.0
2015-Aug-28 03:32N 39°49' W 075°24'0 0.0
2015-Aug-28 02:32N 39°49' W 075°24'0 0.0
2015-Aug-28 01:32N 39°49' W 075°24'0 0.0
2015-Aug-28 00:32N 39°49' W 075°24'0 0.0
2015-Aug-27 23:32N 39°49' W 075°24'0 0.1
2015-Aug-27 22:32N 39°48' W 075°24'0 0.0
2015-Aug-27 21:29N 39°48' W 075°24'0 0.0
2015-Aug-27 20:32N 39°48' W 075°24'0 0.0
2015-Aug-27 19:32N 39°48' W 075°24'0 0.0
2015-Aug-27 18:32N 39°48' W 075°24'0 0.0
2015-Aug-27 17:32N 39°48' W 075°24'0 0.1
2015-Aug-27 16:33N 39°48' W 075°24'0 0.2
2015-Aug-27 15:33N 39°49' W 075°24'8 7.7
2015-Aug-27 14:33N 39°43' W 075°31'10 9.7
2015-Aug-27 13:33N 39°33' W 075°32'1010.2
2015-Aug-27 12:33N 39°23' W 075°29'1111.1
2015-Aug-27 11:33N 39°15' W 075°19'1110.9
2015-Aug-27 10:33N 39°06' W 075°12'1110.7
2015-Aug-27 09:33N 38°56' W 075°06'1010.0
2015-Aug-27 08:33N 38°48' W 074°58'13 9.5
2015-Aug-27 07:10N 38°56' W 074°44'8 9.7
2015-Aug-27 06:22N 39°02' W 074°37'8 9.8
2015-Aug-27 05:33N 39°08' W 074°30'22 9.7
2015-Aug-27 03:20N 39°24' W 074°12'8 9.8
2015-Aug-27 02:33N 39°31' W 074°07'10 9.7
2015-Aug-27 01:33N 39°39' W 074°02'10 9.8
2015-Aug-27 00:33N 39°49' W 073°58'45 8.8
2015-Aug-26 19:30N 40°33' W 074°02'7 7.4
2015-Aug-26 18:33N 40°40' W 074°02'0 0.1
2015-Aug-26 17:33N 40°40' W 074°02'0 0.0
2015-Aug-26 16:33N 40°40' W 074°02'0 0.0
2015-Aug-26 15:33N 40°40' W 074°02'0 0.0
2015-Aug-26 14:33N 40°40' W 074°02'0 0.0
2015-Aug-26 13:33N 40°40' W 074°02'0 0.0
2015-Aug-26 12:33N 40°40' W 074°02'0 0.1
2015-Aug-26 11:33N 40°40' W 074°02'0 0.1
2015-Aug-26 10:33N 40°40' W 074°02'0 0.0
2015-Aug-26 09:33N 40°40' W 074°02'0 0.0
2015-Aug-26 08:33N 40°40' W 074°02'0 0.0
2015-Aug-26 07:33N 40°40' W 074°02'0 0.0
2015-Aug-26 06:33N 40°40' W 074°02'0 0.1
2015-Aug-26 05:33N 40°40' W 074°02'0 0.0
2015-Aug-26 04:33N 40°40' W 074°02'0 0.0
2015-Aug-26 03:33N 40°40' W 074°02'0 0.0
2015-Aug-26 02:33N 40°40' W 074°02'0 0.0
2015-Aug-26 01:33N 40°40' W 074°02'0 0.0
2015-Aug-26 00:33N 40°40' W 074°02'0 0.2
2015-Aug-25 23:33N 40°40' W 074°02'0 0.0
2015-Aug-25 22:33N 40°40' W 074°02'0 0.0
2015-Aug-25 21:33N 40°40' W 074°02'4 4.3
2015-Aug-25 20:33N 40°39' W 074°07'1 0.5
2015-Aug-25 19:31N 40°38' W 074°08'0 0.0
2015-Aug-25 18:31N 40°38' W 074°08'0 0.0
2015-Aug-25 17:31N 40°38' W 074°08'0 0.0
2015-Aug-25 16:34N 40°38' W 074°08'5 4.6
2015-Aug-25 15:32N 40°40' W 074°02'0 0.0
2015-Aug-25 14:32N 40°40' W 074°02'0 0.0
2015-Aug-25 13:32N 40°40' W 074°02'0 0.0
2015-Aug-25 12:32N 40°40' W 074°02'0 0.1
2015-Aug-25 11:32N 40°40' W 074°02'0 0.1
2015-Aug-25 10:32N 40°40' W 074°02'0 0.0
2015-Aug-25 09:32N 40°40' W 074°02'0 0.0
2015-Aug-25 08:32N 40°40' W 074°02'0 0.0
2015-Aug-25 07:32N 40°40' W 074°02'0 0.0
2015-Aug-25 06:32N 40°40' W 074°02'0 0.1
2015-Aug-25 05:32N 40°40' W 074°02'0 0.1
2015-Aug-25 04:32N 40°40' W 074°02'0 0.0
2015-Aug-25 03:32N 40°40' W 074°02'0 0.0
2015-Aug-25 02:32N 40°40' W 074°02'0 0.0
2015-Aug-25 01:32N 40°40' W 074°02'0 0.0
2015-Aug-25 00:32N 40°40' W 074°02'0 0.1
2015-Aug-24 23:32N 40°40' W 074°02'0 0.1
2015-Aug-24 22:32N 40°40' W 074°02'1 1.2
2015-Aug-24 21:33N 40°40' W 074°03'3 3.0
2015-Aug-24 20:33N 40°39' W 074°07'0 0.0
2015-Aug-24 19:33N 40°39' W 074°07'0 0.0
2015-Aug-24 18:33N 40°39' W 074°07'3 2.5
2015-Aug-24 17:34N 40°39' W 074°04'6 6.0
2015-Aug-24 16:33N 40°39' W 074°11'1 0.3
2015-Aug-24 14:11N 40°38' W 074°12'0 0.0
2015-Aug-24 13:32N 40°38' W 074°12'0 0.0
2015-Aug-24 12:23N 40°38' W 074°12'0 0.0
2015-Aug-24 11:29N 40°38' W 074°12'0 0.0
2015-Aug-24 10:32N 40°38' W 074°12'0 0.0
2015-Aug-24 08:32N 40°38' W 074°12'0 0.0
2015-Aug-24 02:26N 40°38' W 074°12'0 0.0
2015-Aug-24 01:33N 40°38' W 074°12'0 0.0
2015-Aug-24 00:33N 40°38' W 074°12'5 5.2
2015-Aug-23 23:33N 40°39' W 074°06'2 2.4
2015-Aug-23 22:31N 40°37' W 074°03'0 0.2
2015-Aug-23 21:31N 40°37' W 074°03'0 0.0
2015-Aug-23 20:28N 40°37' W 074°03'0 0.0
2015-Aug-23 19:28N 40°37' W 074°03'0 0.0
2015-Aug-23 18:28N 40°37' W 074°03'0 0.0
2015-Aug-23 17:31N 40°37' W 074°03'0 0.0
2015-Aug-23 16:28N 40°37' W 074°03'0 0.2
2015-Aug-23 15:31N 40°37' W 074°03'0 0.1
2015-Aug-23 14:25N 40°37' W 074°03'0 0.1
2015-Aug-23 13:31N 40°37' W 074°03'0 0.0
2015-Aug-23 12:31N 40°37' W 074°03'0 0.0
2015-Aug-23 11:31N 40°37' W 074°03'0 0.0
2015-Aug-23 10:31N 40°37' W 074°03'0 0.0
2015-Aug-23 09:33N 40°37' W 074°03'0 0.3
2015-Aug-23 08:34N 40°37' W 074°03'3 2.6
2015-Aug-23 07:33N 40°39' W 074°05'6 5.7
2015-Aug-23 06:33N 40°38' W 074°12'0 0.0
2015-Aug-23 00:31N 40°38' W 074°12'0 0.0
2015-Aug-22 23:25N 40°38' W 074°12'0 0.0
2015-Aug-22 19:13N 40°38' W 074°12'0 0.0
2015-Aug-22 18:13N 40°38' W 074°12'0 0.0
2015-Aug-22 15:19N 40°38' W 074°12'0 0.0
2015-Aug-22 14:32N 40°38' W 074°12'5 4.7
2015-Aug-22 13:33N 40°39' W 074°06'3 3.4
2015-Aug-22 12:32N 40°40' W 074°02'0 0.0
2015-Aug-22 11:32N 40°40' W 074°02'0 0.0
2015-Aug-22 10:32N 40°40' W 074°02'0 0.0
2015-Aug-22 09:32N 40°40' W 074°02'0 0.0
2015-Aug-22 08:32N 40°40' W 074°02'0 0.1
2015-Aug-22 07:32N 40°40' W 074°02'0 0.1
2015-Aug-22 06:32N 40°40' W 074°02'0 0.0
2015-Aug-22 05:32N 40°40' W 074°02'0 0.0
2015-Aug-22 04:32N 40°40' W 074°02'0 0.1
2015-Aug-22 03:32N 40°40' W 074°02'0 0.1
2015-Aug-22 02:32N 40°40' W 074°02'0 0.1
2015-Aug-22 01:32N 40°40' W 074°02'0 0.0
2015-Aug-22 00:32N 40°40' W 074°02'0 0.0
2015-Aug-21 23:32N 40°40' W 074°02'0 0.0
2015-Aug-21 22:32N 40°40' W 074°02'0 0.0
2015-Aug-21 21:32N 40°40' W 074°02'0 0.0
2015-Aug-21 20:32N 40°40' W 074°02'0 0.1
2015-Aug-21 19:32N 40°40' W 074°02'0 0.0
2015-Aug-21 18:32N 40°40' W 074°02'0 0.0
2015-Aug-21 17:32N 40°40' W 074°02'0 0.0
2015-Aug-21 16:32N 40°40' W 074°02'0 0.1
2015-Aug-21 15:32N 40°40' W 074°02'0 0.1
2015-Aug-21 14:32N 40°40' W 074°02'0 0.0
2015-Aug-21 13:32N 40°40' W 074°02'0 0.0
2015-Aug-21 12:32N 40°40' W 074°02'0 0.0
2015-Aug-21 11:32N 40°40' W 074°02'0 0.0
2015-Aug-21 10:32N 40°40' W 074°02'0 0.0
2015-Aug-21 09:32N 40°40' W 074°02'0 0.0
2015-Aug-21 08:32N 40°40' W 074°02'0 0.1
2015-Aug-21 07:32N 40°40' W 074°02'0 0.1
2015-Aug-21 06:32N 40°40' W 074°02'0 0.0
2015-Aug-21 05:32N 40°40' W 074°02'0 0.0
2015-Aug-21 04:32N 40°40' W 074°02'0 0.0
2015-Aug-21 03:32N 40°40' W 074°02'0 0.0
2015-Aug-21 02:32N 40°40' W 074°02'0 0.1
2015-Aug-21 01:32N 40°40' W 074°02'0 0.1
2015-Aug-21 00:32N 40°40' W 074°02'1 1.0
2015-Aug-20 23:33N 40°39' W 074°03'2 2.5
2015-Aug-20 22:33N 40°37' W 074°03'0 0.0
2015-Aug-20 21:33N 40°37' W 074°03'0 0.0
2015-Aug-20 20:30N 40°37' W 074°03'0 0.3
2015-Aug-20 19:33N 40°37' W 074°04'0 0.1
2015-Aug-20 18:30N 40°37' W 074°04'0 0.0
2015-Aug-20 17:30N 40°37' W 074°04'0 0.0
2015-Aug-20 16:33N 40°37' W 074°04'0 0.0
2015-Aug-20 15:33N 40°37' W 074°04'0 0.0
2015-Aug-20 14:33N 40°37' W 074°04'0 0.1
2015-Aug-20 13:30N 40°37' W 074°03'0 0.2
2015-Aug-20 12:33N 40°37' W 074°03'0 0.1
2015-Aug-20 11:33N 40°37' W 074°03'0 0.0
2015-Aug-20 10:33N 40°37' W 074°03'0 0.0
2015-Aug-20 09:33N 40°37' W 074°03'0 0.0
2015-Aug-20 08:33N 40°37' W 074°03'1 0.7
2015-Aug-20 07:33N 40°38' W 074°03'1 1.4
2015-Aug-20 06:32N 40°39' W 074°03'0 0.0
2015-Aug-20 05:32N 40°39' W 074°03'0 0.0
2015-Aug-20 04:34N 40°39' W 074°03'7 6.7
2015-Aug-20 03:33N 40°38' W 074°12'0 0.2
2015-Aug-20 02:21N 40°38' W 074°12'0 0.0
2015-Aug-20 01:33N 40°38' W 074°12'  
Track history (hours):
 
Tides and Currents Weather Stations Pressure Air Temp Water Temp Dewpoint Dewpoint Depression Visibility Wind Speed Wind Dir Waves Ship Positions

Linda Moran

Owner: MORAN TOWING CORP., NEW CANAAN, CT. More information available from US FCC via Universal Licensing System and Coast Guard Vessel Documentation Center.

Last reported at 2015-Aug-29 20:33 UTC. Time now 2015-Aug-29 20:56 UTC.
Position N 38°46' W 074°57'.

Length 156 m; draft 8.2 m.

Type: Towing. MMSI: 367349860.

Date/timePositionNaut miles runAvg speedWind from/ knotsBaromVisibWave heightAir tempDewpointWater temp
2015-Aug-29 20:33N 38°46' W 074°57'9 8.6
2015-Aug-29 19:33N 38°53' W 075°04'1010.4
2015-Aug-29 18:33N 39°02' W 075°10'1111.2
2015-Aug-29 17:33N 39°12' W 075°17'1110.6
2015-Aug-29 16:33N 39°20' W 075°26'9 9.1
2015-Aug-29 15:33N 39°27' W 075°33'8 7.5
2015-Aug-29 14:33N 39°35' W 075°33'6 6.3
2015-Aug-29 13:33N 39°41' W 075°31'8 7.6
2015-Aug-29 12:33N 39°47' W 075°27'2 2.3
2015-Aug-29 11:33N 39°48' W 075°24'0 0.0
2015-Aug-29 10:33N 39°48' W 075°24'0 0.0
2015-Aug-29 09:33N 39°48' W 075°24'0 0.0
2015-Aug-29 08:32N 39°48' W 075°24'0 0.0
2015-Aug-29 07:32N 39°48' W 075°24'0 0.0
2015-Aug-29 06:32N 39°49' W 075°24'0 0.2
2015-Aug-29 05:32N 39°49' W 075°24'0 0.0
2015-Aug-29 04:32N 39°49' W 075°24'0 0.0
2015-Aug-29 03:29N 39°49' W 075°24'0 0.0
2015-Aug-29 02:29N 39°49' W 075°24'0 0.0
2015-Aug-29 01:32N 39°49' W 075°24'0 0.0
2015-Aug-29 00:32N 39°49' W 075°24'0 0.2
2015-Aug-28 23:32N 39°48' W 075°24'0 0.0
2015-Aug-28 22:32N 39°48' W 075°24'0 0.0
2015-Aug-28 21:32N 39°48' W 075°24'0 0.0
2015-Aug-28 20:32N 39°48' W 075°24'0 0.0
2015-Aug-28 19:32N 39°48' W 075°24'0 0.0
2015-Aug-28 18:32N 39°48' W 075°24'0 0.2
2015-Aug-28 17:32N 39°49' W 075°24'0 0.1
2015-Aug-28 16:32N 39°49' W 075°24'0 0.0
2015-Aug-28 15:32N 39°49' W 075°24'0 0.0
2015-Aug-28 14:32N 39°49' W 075°24'0 0.0
2015-Aug-28 13:32N 39°49' W 075°24'0 0.0
2015-Aug-28 12:32N 39°49' W 075°24'0 0.2
2015-Aug-28 11:32N 39°48' W 075°24'0 0.0
2015-Aug-28 10:32N 39°48' W 075°24'0 0.0
2015-Aug-28 09:32N 39°48' W 075°24'0 0.0
2015-Aug-28 08:32N 39°48' W 075°24'0 0.0
2015-Aug-28 07:32N 39°48' W 075°24'0 0.0
2015-Aug-28 06:32N 39°48' W 075°24'0 0.0
2015-Aug-28 05:32N 39°48' W 075°24'0 0.1
2015-Aug-28 04:32N 39°49' W 075°24'0 0.0
2015-Aug-28 03:32N 39°49' W 075°24'0 0.0
2015-Aug-28 02:32N 39°49' W 075°24'0 0.0
2015-Aug-28 01:32N 39°49' W 075°24'0 0.0
2015-Aug-28 00:32N 39°49' W 075°24'0 0.0
2015-Aug-27 23:32N 39°49' W 075°24'0 0.1
2015-Aug-27 22:32N 39°48' W 075°24'0 0.0
2015-Aug-27 21:29N 39°48' W 075°24'0 0.0
2015-Aug-27 20:32N 39°48' W 075°24'0 0.0
2015-Aug-27 19:32N 39°48' W 075°24'0 0.0
2015-Aug-27 18:32N 39°48' W 075°24'0 0.0
2015-Aug-27 17:32N 39°48' W 075°24'0 0.1
2015-Aug-27 16:33N 39°48' W 075°24'0 0.2
2015-Aug-27 15:33N 39°49' W 075°24'8 7.7
2015-Aug-27 14:33N 39°43' W 075°31'10 9.7
2015-Aug-27 13:33N 39°33' W 075°32'1010.2
2015-Aug-27 12:33N 39°23' W 075°29'1111.1
2015-Aug-27 11:33N 39°15' W 075°19'1110.9
2015-Aug-27 10:33N 39°06' W 075°12'1110.7
2015-Aug-27 09:33N 38°56' W 075°06'1010.0
2015-Aug-27 08:33N 38°48' W 074°58'13 9.5
2015-Aug-27 07:10N 38°56' W 074°44'8 9.7
2015-Aug-27 06:22N 39°02' W 074°37'8 9.8
2015-Aug-27 05:33N 39°08' W 074°30'22 9.7
2015-Aug-27 03:20N 39°24' W 074°12'8 9.8
2015-Aug-27 02:33N 39°31' W 074°07'10 9.7
2015-Aug-27 01:33N 39°39' W 074°02'10 9.8
2015-Aug-27 00:33N 39°49' W 073°58'45 8.8
2015-Aug-26 19:30N 40°33' W 074°02'7 7.4
2015-Aug-26 18:33N 40°40' W 074°02'0 0.1
2015-Aug-26 17:33N 40°40' W 074°02'0 0.0
2015-Aug-26 16:33N 40°40' W 074°02'0 0.0
2015-Aug-26 15:33N 40°40' W 074°02'0 0.0
2015-Aug-26 14:33N 40°40' W 074°02'0 0.0
2015-Aug-26 13:33N 40°40' W 074°02'0 0.0
2015-Aug-26 12:33N 40°40' W 074°02'0 0.1
2015-Aug-26 11:33N 40°40' W 074°02'0 0.1
2015-Aug-26 10:33N 40°40' W 074°02'0 0.0
2015-Aug-26 09:33N 40°40' W 074°02'0 0.0
2015-Aug-26 08:33N 40°40' W 074°02'0 0.0
2015-Aug-26 07:33N 40°40' W 074°02'0 0.0
2015-Aug-26 06:33N 40°40' W 074°02'0 0.1
2015-Aug-26 05:33N 40°40' W 074°02'0 0.0
2015-Aug-26 04:33N 40°40' W 074°02'0 0.0
2015-Aug-26 03:33N 40°40' W 074°02'0 0.0
2015-Aug-26 02:33N 40°40' W 074°02'0 0.0
2015-Aug-26 01:33N 40°40' W 074°02'0 0.0
2015-Aug-26 00:33N 40°40' W 074°02'0 0.2
2015-Aug-25 23:33N 40°40' W 074°02'0 0.0
2015-Aug-25 22:33N 40°40' W 074°02'0 0.0
2015-Aug-25 21:33N 40°40' W 074°02'4 4.3
2015-Aug-25 20:33N 40°39' W 074°07'1 0.5
2015-Aug-25 19:31N 40°38' W 074°08'0 0.0
2015-Aug-25 18:31N 40°38' W 074°08'0 0.0
2015-Aug-25 17:31N 40°38' W 074°08'0 0.0
2015-Aug-25 16:34N 40°38' W 074°08'5 4.6
2015-Aug-25 15:32N 40°40' W 074°02'0 0.0
2015-Aug-25 14:32N 40°40' W 074°02'0 0.0
2015-Aug-25 13:32N 40°40' W 074°02'0 0.0
2015-Aug-25 12:32N 40°40' W 074°02'0 0.1
2015-Aug-25 11:32N 40°40' W 074°02'0 0.1
2015-Aug-25 10:32N 40°40' W 074°02'0 0.0
2015-Aug-25 09:32N 40°40' W 074°02'0 0.0
2015-Aug-25 08:32N 40°40' W 074°02'0 0.0
2015-Aug-25 07:32N 40°40' W 074°02'0 0.0
2015-Aug-25 06:32N 40°40' W 074°02'0 0.1
2015-Aug-25 05:32N 40°40' W 074°02'0 0.1
2015-Aug-25 04:32N 40°40' W 074°02'0 0.0
2015-Aug-25 03:32N 40°40' W 074°02'0 0.0
2015-Aug-25 02:32N 40°40' W 074°02'0 0.0
2015-Aug-25 01:32N 40°40' W 074°02'0 0.0
2015-Aug-25 00:32N 40°40' W 074°02'0 0.1
2015-Aug-24 23:32N 40°40' W 074°02'0 0.1
2015-Aug-24 22:32N 40°40' W 074°02'1 1.2
2015-Aug-24 21:33N 40°40' W 074°03'3 3.0
2015-Aug-24 20:33N 40°39' W 074°07'0 0.0
2015-Aug-24 19:33N 40°39' W 074°07'0 0.0
2015-Aug-24 18:33N 40°39' W 074°07'3 2.5
2015-Aug-24 17:34N 40°39' W 074°04'6 6.0
2015-Aug-24 16:33N 40°39' W 074°11'1 0.3
2015-Aug-24 14:11N 40°38' W 074°12'0 0.0
2015-Aug-24 13:32N 40°38' W 074°12'0 0.0
2015-Aug-24 12:23N 40°38' W 074°12'0 0.0
2015-Aug-24 11:29N 40°38' W 074°12'0 0.0
2015-Aug-24 10:32N 40°38' W 074°12'0 0.0
2015-Aug-24 08:32N 40°38' W 074°12'0 0.0
2015-Aug-24 02:26N 40°38' W 074°12'0 0.0
2015-Aug-24 01:33N 40°38' W 074°12'0 0.0
2015-Aug-24 00:33N 40°38' W 074°12'5 5.2
2015-Aug-23 23:33N 40°39' W 074°06'2 2.4
2015-Aug-23 22:31N 40°37' W 074°03'0 0.2
2015-Aug-23 21:31N 40°37' W 074°03'0 0.0
2015-Aug-23 20:28N 40°37' W 074°03'0 0.0
2015-Aug-23 19:28N 40°37' W 074°03'0 0.0
2015-Aug-23 18:28N 40°37' W 074°03'0 0.0
2015-Aug-23 17:31N 40°37' W 074°03'0 0.0
2015-Aug-23 16:28N 40°37' W 074°03'0 0.2
2015-Aug-23 15:31N 40°37' W 074°03'0 0.1
2015-Aug-23 14:25N 40°37' W 074°03'0 0.1
2015-Aug-23 13:31N 40°37' W 074°03'0 0.0
2015-Aug-23 12:31N 40°37' W 074°03'0 0.0
2015-Aug-23 11:31N 40°37' W 074°03'0 0.0
2015-Aug-23 10:31N 40°37' W 074°03'0 0.0
2015-Aug-23 09:33N 40°37' W 074°03'0 0.3
2015-Aug-23 08:34N 40°37' W 074°03'3 2.6
2015-Aug-23 07:33N 40°39' W 074°05'6 5.7
2015-Aug-23 06:33N 40°38' W 074°12'0 0.0
2015-Aug-23 00:31N 40°38' W 074°12'0 0.0
2015-Aug-22 23:25N 40°38' W 074°12'0 0.0
2015-Aug-22 19:13N 40°38' W 074°12'0 0.0
2015-Aug-22 18:13N 40°38' W 074°12'0 0.0
2015-Aug-22 15:19N 40°38' W 074°12'0 0.0
2015-Aug-22 14:32N 40°38' W 074°12'5 4.7
2015-Aug-22 13:33N 40°39' W 074°06'3 3.4
2015-Aug-22 12:32N 40°40' W 074°02'0 0.0
2015-Aug-22 11:32N 40°40' W 074°02'0 0.0
2015-Aug-22 10:32N 40°40' W 074°02'0 0.0
2015-Aug-22 09:32N 40°40' W 074°02'0 0.0
2015-Aug-22 08:32N 40°40' W 074°02'0 0.1
2015-Aug-22 07:32N 40°40' W 074°02'0 0.1
2015-Aug-22 06:32N 40°40' W 074°02'0 0.0
2015-Aug-22 05:32N 40°40' W 074°02'0 0.0
2015-Aug-22 04:32N 40°40' W 074°02'0 0.1
2015-Aug-22 03:32N 40°40' W 074°02'0 0.1
2015-Aug-22 02:32N 40°40' W 074°02'0 0.1
2015-Aug-22 01:32N 40°40' W 074°02'0 0.0
2015-Aug-22 00:32N 40°40' W 074°02'0 0.0
2015-Aug-21 23:32N 40°40' W 074°02'0 0.0
2015-Aug-21 22:32N 40°40' W 074°02'0 0.0
2015-Aug-21 21:32N 40°40' W 074°02'0 0.0
2015-Aug-21 20:32N 40°40' W 074°02'0 0.1
2015-Aug-21 19:32N 40°40' W 074°02'0 0.0
2015-Aug-21 18:32N 40°40' W 074°02'0 0.0
2015-Aug-21 17:32N 40°40' W 074°02'0 0.0
2015-Aug-21 16:32N 40°40' W 074°02'0 0.1
2015-Aug-21 15:32N 40°40' W 074°02'0 0.1
2015-Aug-21 14:32N 40°40' W 074°02'0 0.0
2015-Aug-21 13:32N 40°40' W 074°02'0 0.0
2015-Aug-21 12:32N 40°40' W 074°02'0 0.0
2015-Aug-21 11:32N 40°40' W 074°02'0 0.0
2015-Aug-21 10:32N 40°40' W 074°02'0 0.0
2015-Aug-21 09:32N 40°40' W 074°02'0 0.0
2015-Aug-21 08:32N 40°40' W 074°02'0 0.1
2015-Aug-21 07:32N 40°40' W 074°02'0 0.1
2015-Aug-21 06:32N 40°40' W 074°02'0 0.0
2015-Aug-21 05:32N 40°40' W 074°02'0 0.0
2015-Aug-21 04:32N 40°40' W 074°02'0 0.0
2015-Aug-21 03:32N 40°40' W 074°02'0 0.0
2015-Aug-21 02:32N 40°40' W 074°02'0 0.1
2015-Aug-21 01:32N 40°40' W 074°02'0 0.1
2015-Aug-21 00:32N 40°40' W 074°02'1 1.0
2015-Aug-20 23:33N 40°39' W 074°03'2 2.5
2015-Aug-20 22:33N 40°37' W 074°03'0 0.0
2015-Aug-20 21:33N 40°37' W 074°03'0 0.0
2015-Aug-20 20:30N 40°37' W 074°03'0 0.3
2015-Aug-20 19:33N 40°37' W 074°04'0 0.1
2015-Aug-20 18:30N 40°37' W 074°04'0 0.0
2015-Aug-20 17:30N 40°37' W 074°04'0 0.0
2015-Aug-20 16:33N 40°37' W 074°04'0 0.0
2015-Aug-20 15:33N 40°37' W 074°04'0 0.0
2015-Aug-20 14:33N 40°37' W 074°04'0 0.1
2015-Aug-20 13:30N 40°37' W 074°03'0 0.2
2015-Aug-20 12:33N 40°37' W 074°03'0 0.1
2015-Aug-20 11:33N 40°37' W 074°03'0 0.0
2015-Aug-20 10:33N 40°37' W 074°03'0 0.0
2015-Aug-20 09:33N 40°37' W 074°03'0 0.0
2015-Aug-20 08:33N 40°37' W 074°03'1 0.7
2015-Aug-20 07:33N 40°38' W 074°03'1 1.4
2015-Aug-20 06:32N 40°39' W 074°03'0 0.0
2015-Aug-20 05:32N 40°39' W 074°03'0 0.0
2015-Aug-20 04:34N 40°39' W 074°03'7 6.7
2015-Aug-20 03:33N 40°38' W 074°12'0 0.2
2015-Aug-20 02:21N 40°38' W 074°12'0 0.0
2015-Aug-20 01:33N 40°38' W 074°12'  

Dump ship's entire track history